»·PEaware :: N45XS KPDX-KBOI

N45XS :: KPDX-KBOI

FLIGHT INFORMATION

Flight Status: Arrived
Operator: Privately registered:
United States
More flights under this callsign
Pilot: Ernest M. (83)
Aircraft: BEECH AIRCRAFT KING AIR 100
(BE10)
More flights by this aircraft type
Origin: KPDX Portland Intl
United States
Destination: KBOI Boise Air Terminal/Gowen
United States
More flights between these airports :: More routes between these airports
Route: +PTLD1 BTG MULES V448 GLARA V500 BO
File this flight plan on PilotEdge
Remarks:
Altitude:
(Current/Filed)
14,000ft
Speed:
(Current/Filed)
160kts
Departed: 25-Aug-18 07:37 PM
Arrived: 25-Aug-18 09:32 PM
Distance/Time
Traveled:
298nm/1:54
Distance/Time
To Go:
Arrived

Flight Plot

Page will automatically refresh every two minutes.

Flight plan parsing failed; only flown route is shown


Map Options




Map Legend


Flown Route
Filed Route
Departure Airport
Arrival Airport
Navaid (VOR, NDB)
Fix

Horizontal Profiles

Position Reports

Time Latitude Longitude Heading Altitude Ground
Speed
25-Aug-18 18:53 45.588395 -122.585517 209 19ft 0kts
25-Aug-18 18:54 45.588395 -122.585517 209 19ft 0kts
25-Aug-18 18:55 45.588395 -122.585517 209 19ft 0kts
25-Aug-18 18:56 45.588395 -122.585517 209 19ft 0kts
25-Aug-18 18:57 45.588395 -122.585517 209 19ft 0kts
25-Aug-18 18:58 45.588395 -122.585517 209 19ft 0kts
25-Aug-18 18:59 45.588395 -122.585517 209 19ft 0kts
25-Aug-18 19:00 45.588395 -122.585517 209 19ft 0kts
25-Aug-18 19:01 45.588395 -122.585517 209 19ft 0kts
25-Aug-18 19:02 45.588395 -122.585517 209 19ft 0kts
25-Aug-18 19:03 45.588395 -122.585517 209 19ft 0kts
25-Aug-18 19:04 45.588395 -122.585517 209 19ft 0kts
25-Aug-18 19:05 45.588395 -122.585517 209 19ft 0kts
25-Aug-18 19:06 45.588395 -122.585517 209 19ft 0kts
25-Aug-18 19:07 45.588395 -122.585517 209 19ft 0kts
25-Aug-18 19:08 45.588395 -122.585517 209 19ft 0kts
25-Aug-18 19:09 45.588395 -122.585517 209 19ft 0kts
25-Aug-18 19:10 45.588395 -122.585517 209 19ft 0kts
25-Aug-18 19:11 45.588395 -122.585517 209 19ft 0kts
25-Aug-18 19:12 45.588395 -122.585517 209 19ft 0kts
25-Aug-18 19:13 45.588395 -122.585517 209 19ft 0kts
25-Aug-18 19:14 45.588395 -122.585517 209 19ft 0kts
25-Aug-18 19:15 45.588395 -122.585517 209 19ft 0kts
25-Aug-18 19:16 45.588395 -122.585517 209 19ft 0kts
25-Aug-18 19:17 45.588395 -122.585517 209 19ft 0kts
25-Aug-18 19:18 45.588395 -122.585517 209 19ft 0kts
25-Aug-18 19:19 45.588395 -122.585517 209 19ft 0kts
25-Aug-18 19:20 45.588395 -122.585517 209 19ft 0kts
25-Aug-18 19:21 45.588395 -122.585517 209 19ft 0kts
25-Aug-18 19:22 45.588395 -122.585517 209 19ft 0kts
25-Aug-18 19:23 45.588395 -122.585517 209 19ft 0kts
25-Aug-18 19:24 45.588395 -122.585517 209 19ft 0kts
25-Aug-18 19:25 45.588395 -122.585517 209 19ft 0kts
25-Aug-18 19:26 45.588395 -122.585517 209 19ft 0kts
25-Aug-18 19:27 45.588395 -122.585517 209 19ft 0kts
25-Aug-18 19:28 45.587983 -122.584961 119 19ft 12kts
25-Aug-18 19:29 45.587919 -122.584752 109 19ft 0kts
25-Aug-18 19:30 45.587919 -122.584750 105 19ft 0kts
25-Aug-18 19:31 45.587663 -122.583020 38 19ft 3kts
25-Aug-18 19:32 45.588219 -122.581896 115 19ft 13kts
25-Aug-18 19:33 45.585958 -122.576159 118 19ft 23kts
25-Aug-18 19:34 45.583219 -122.569192 124 19ft 22kts
25-Aug-18 19:35 45.582621 -122.567448 103 19ft 1kts
25-Aug-18 19:36 45.582641 -122.567389 51 19ft 0kts
25-Aug-18 19:37 45.582715 -122.567255 50 19ft 4kts
25-Aug-18 19:38 45.586963 -122.575491 298 19ft 100kts
25-Aug-18 19:39 45.601211 -122.612903 299 828ft 131kts
25-Aug-18 19:40 45.616704 -122.654959 309 1982ft 135kts
25-Aug-18 19:41 45.648011 -122.663226 9 3231ft 130kts
25-Aug-18 19:42 45.679790 -122.649367 16 4273ft 136kts
25-Aug-18 19:43 45.712441 -122.636928 12 5388ft 131kts
25-Aug-18 19:44 45.746662 -122.621439 18 6392ft 133kts
25-Aug-18 19:45 45.756417 -122.578330 120 7281ft 151kts
25-Aug-18 19:46 45.729180 -122.562477 185 7800ft 162kts
25-Aug-18 19:47 45.689972 -122.571663 194 8600ft 158kts
25-Aug-18 19:48 45.651314 -122.582500 194 9312ft 162kts
25-Aug-18 19:49 45.613891 -122.593418 200 10145ft 150kts
25-Aug-18 19:50 45.579165 -122.604932 195 10830ft 152kts
25-Aug-18 19:51 45.542283 -122.610306 191 11487ft 154kts
25-Aug-18 19:52 45.504538 -122.612551 185 12112ft 156kts
25-Aug-18 19:53 45.462960 -122.603837 182 12767ft 154kts
25-Aug-18 19:54 45.423987 -122.600737 186 13365ft 152kts
25-Aug-18 19:55 45.383989 -122.600656 189 13918ft 153kts
25-Aug-18 19:56 45.344222 -122.601391 187 14390ft 153kts
25-Aug-18 19:57 45.304813 -122.602308 187 14812ft 154kts
25-Aug-18 19:58 45.272501 -122.575421 100 15019ft 177kts
25-Aug-18 19:59 45.258208 -122.505781 101 15003ft 205kts
25-Aug-18 20:00 45.242954 -122.431311 101 14999ft 219kts
25-Aug-18 20:01 45.226558 -122.351422 101 14998ft 226kts
25-Aug-18 20:02 45.211255 -122.277069 102 14993ft 228kts
25-Aug-18 20:03 45.193978 -122.193435 102 14992ft 229kts
25-Aug-18 20:04 45.176819 -122.110711 102 14992ft 230kts
25-Aug-18 20:05 45.159276 -122.026473 102 14992ft 230kts
25-Aug-18 20:06 45.141627 -121.942080 102 14993ft 231kts
25-Aug-18 20:07 45.123870 -121.857512 102 14980ft 231kts
25-Aug-18 20:08 45.105879 -121.772183 102 14957ft 232kts
25-Aug-18 20:09 45.087900 -121.687273 103 14935ft 233kts
25-Aug-18 20:10 45.069699 -121.601670 103 14930ft 232kts
25-Aug-18 20:11 45.051197 -121.514905 103 14931ft 232kts
25-Aug-18 20:12 45.032721 -121.428729 103 14931ft 233kts
25-Aug-18 20:13 45.014298 -121.343196 104 14929ft 233kts
25-Aug-18 20:14 44.996065 -121.258871 104 14927ft 232kts
25-Aug-18 20:15 44.977401 -121.172835 105 14927ft 232kts
25-Aug-18 20:16 44.958671 -121.086860 106 14927ft 232kts
25-Aug-18 20:17 44.939884 -121.001035 107 14930ft 231kts
25-Aug-18 20:18 44.921422 -120.917049 108 14933ft 230kts
25-Aug-18 20:19 44.902699 -120.832204 108 14937ft 230kts
25-Aug-18 20:20 44.884589 -120.750431 108 14939ft 230kts
25-Aug-18 20:21 44.866040 -120.667004 108 14943ft 230kts
25-Aug-18 20:22 44.847145 -120.582351 108 14947ft 230kts
25-Aug-18 20:23 44.827920 -120.496561 108 14951ft 231kts
25-Aug-18 20:24 44.808555 -120.410492 108 14954ft 231kts
25-Aug-18 20:25 44.789430 -120.325821 108 14952ft 231kts
25-Aug-18 20:26 44.770339 -120.241647 108 14952ft 230kts
25-Aug-18 20:27 44.751290 -120.157961 109 14950ft 230kts
25-Aug-18 20:28 44.732179 -120.074337 108 14947ft 230kts
25-Aug-18 20:29 44.712521 -119.988663 109 14944ft 230kts
25-Aug-18 20:30 44.693014 -119.903976 109 14945ft 230kts
25-Aug-18 20:31 44.673215 -119.818349 108 14945ft 230kts
25-Aug-18 20:32 44.653327 -119.732677 108 14946ft 231kts
25-Aug-18 20:33 44.630215 -119.649097 113 14946ft 230kts
25-Aug-18 20:34 44.606106 -119.566320 113 14947ft 231kts
25-Aug-18 20:35 44.581730 -119.482997 113 14947ft 231kts
25-Aug-18 20:36 44.557331 -119.399869 113 14947ft 231kts
25-Aug-18 20:37 44.533256 -119.318113 114 14943ft 231kts
25-Aug-18 20:38 44.508933 -119.235797 114 14943ft 230kts
25-Aug-18 20:39 44.484411 -119.153082 114 14944ft 230kts
25-Aug-18 20:40 44.459931 -119.070767 114 14944ft 230kts
25-Aug-18 20:41 44.435308 -118.988219 114 14945ft 230kts
25-Aug-18 20:42 44.410637 -118.905803 115 14945ft 230kts
25-Aug-18 20:43 44.386047 -118.823913 115 14973ft 228kts
25-Aug-18 20:44 44.361483 -118.742400 115 14973ft 228kts
25-Aug-18 20:45 44.336762 -118.660615 115 14974ft 229kts
25-Aug-18 20:46 44.311997 -118.578953 115 14974ft 229kts
25-Aug-18 20:47 44.287210 -118.497475 115 14973ft 229kts
25-Aug-18 20:48 44.262272 -118.415746 115 14975ft 229kts
25-Aug-18 20:49 44.238274 -118.337332 116 14971ft 229kts
25-Aug-18 20:50 44.215266 -118.262409 116 14960ft 229kts
25-Aug-18 20:51 44.190630 -118.182407 116 14942ft 229kts
25-Aug-18 20:52 44.165739 -118.101824 116 14924ft 229kts
25-Aug-18 20:53 44.155872 -118.069955 116 14918ft 229kts
25-Aug-18 20:54 44.139410 -118.016862 116 14915ft 228kts
25-Aug-18 20:55 44.114505 -117.936755 116 14906ft 229kts
25-Aug-18 20:56 44.089478 -117.856499 116 14887ft 229kts
25-Aug-18 20:57 44.064267 -117.775900 116 14863ft 230kts
25-Aug-18 20:58 44.050754 -117.732807 116 14853ft 230kts
25-Aug-18 20:59 44.036987 -117.688971 116 14845ft 230kts
25-Aug-18 21:00 44.011382 -117.607644 116 14837ft 230kts
25-Aug-18 21:01 43.985852 -117.526797 116 14837ft 230kts
25-Aug-18 21:02 43.960094 -117.445490 116 14837ft 230kts
25-Aug-18 21:03 43.934436 -117.364744 116 14838ft 230kts
25-Aug-18 21:04 43.909390 -117.286152 117 14963ft 223kts
25-Aug-18 21:05 43.884687 -117.208898 117 14971ft 226kts
25-Aug-18 21:06 43.859220 -117.129472 117 14972ft 227kts
25-Aug-18 21:07 43.833492 -117.049461 117 14972ft 228kts
25-Aug-18 21:08 43.807636 -116.969295 118 14973ft 228kts
25-Aug-18 21:09 43.783335 -116.894187 118 14973ft 227kts
25-Aug-18 21:10 43.766102 -116.841072 118 14973ft 227kts
25-Aug-18 21:11 43.740444 -116.762199 118 14973ft 227kts
25-Aug-18 21:12 43.714652 -116.683109 118 14975ft 227kts
25-Aug-18 21:13 43.689569 -116.606406 118 14818ft 216kts
25-Aug-18 21:14 43.663921 -116.530752 117 14408ft 220kts
25-Aug-18 21:15 43.635736 -116.454580 134 13792ft 224kts
25-Aug-18 21:16 43.603957 -116.404808 136 13326ft 226kts
25-Aug-18 21:17 43.566189 -116.343429 133 12173ft 233kts
25-Aug-18 21:18 43.532620 -116.280908 133 12171ft 201kts
25-Aug-18 21:19 43.496441 -116.223021 131 11993ft 198kts
25-Aug-18 21:20 43.469850 -116.155765 113 11462ft 194kts
25-Aug-18 21:21 43.454834 -116.085897 113 11023ft 188kts
25-Aug-18 21:22 43.422234 -116.035649 142 10290ft 184kts
25-Aug-18 21:23 43.376560 -115.983765 116 7969ft 235kts
25-Aug-18 21:24 43.393459 -115.914106 16 7093ft 191kts
25-Aug-18 21:25 43.439537 -115.894572 11 6859ft 164kts
25-Aug-18 21:26 43.470755 -115.920584 295 6903ft 150kts
25-Aug-18 21:27 43.487560 -115.972526 292 6840ft 156kts
25-Aug-18 21:28 43.500549 -116.030667 285 6637ft 165kts
25-Aug-18 21:29 43.518556 -116.093775 298 5683ft 178kts
25-Aug-18 21:30 43.538082 -116.148705 295 4950ft 151kts
25-Aug-18 21:31 43.551926 -116.188939 297 3746ft 132kts
25-Aug-18 21:32 43.565553 -116.229457 301 2835ft 51kts
25-Aug-18 21:33 43.566811 -116.229917 14 2834ft 4kts
25-Aug-18 21:34 43.567188 -116.229727 20 2835ft 8kts
25-Aug-18 21:35 43.569907 -116.229249 42 2836ft 14kts

Navigation Log

Ident Type
Flight plan parsing failed, navigation log unavailable